createdAt,value
2022-08-09T00:00:11.920Z,2.27
2022-08-09T00:02:48.974Z,2.23
2022-08-09T00:06:16.348Z,2.60
2022-08-09T00:08:11.397Z,2.17
2022-08-09T00:10:59.043Z,2.83
2022-08-09T00:13:27.207Z,2.67
2022-08-09T00:15:59.918Z,2.00
2022-08-09T00:18:35.531Z,2.50
2022-08-09T00:21:07.969Z,2.33
2022-08-09T00:23:54.930Z,2.70
2022-08-09T00:26:29.996Z,2.70
2022-08-09T00:29:02.586Z,2.97
2022-08-09T00:31:58.473Z,2.27
2022-08-09T00:34:21.918Z,2.70
2022-08-09T00:36:50.159Z,2.60
2022-08-09T00:40:12.838Z,2.60
2022-08-09T00:44:19.479Z,2.27
2022-08-09T00:44:58.130Z,2.40
2022-08-09T00:47:29.257Z,2.43
2022-08-09T00:50:06.364Z,2.20
2022-08-09T00:52:42.654Z,2.63
2022-08-09T00:55:32.792Z,2.30
2022-08-09T00:57:59.671Z,2.70
2022-08-09T01:00:28.442Z,2.30
2022-08-09T01:03:04.383Z,2.13
2022-08-09T01:05:53.287Z,2.37
2022-08-09T01:08:28.775Z,2.50
2022-08-09T01:11:08.663Z,2.53
2022-08-09T01:13:53.415Z,2.10
2022-08-09T01:16:33.519Z,2.23
2022-08-09T01:19:17.070Z,2.50
2022-08-09T01:22:16.442Z,2.03
2022-08-09T01:24:52.742Z,2.10
2022-08-09T01:27:24.010Z,2.50
2022-08-09T01:29:56.797Z,2.30
2022-08-09T01:32:31.927Z,2.47
2022-08-09T01:35:18.069Z,1.90
2022-08-09T01:38:09.482Z,2.00
2022-08-09T01:40:43.934Z,2.53
2022-08-09T01:43:15.181Z,2.00
2022-08-09T01:45:44.624Z,2.27
2022-08-09T01:48:16.348Z,1.60
2022-08-09T01:50:48.413Z,1.97
2022-08-09T01:53:19.283Z,2.20
2022-08-09T01:55:49.119Z,2.33
2022-08-09T01:58:19.011Z,2.20
2022-08-09T02:00:53.075Z,2.27
2022-08-09T02:03:22.651Z,2.10
2022-08-09T02:06:03.586Z,1.93
2022-08-09T02:08:57.653Z,2.13
2022-08-09T02:11:24.476Z,2.77
2022-08-09T02:14:16.065Z,2.13
2022-08-09T02:17:14.985Z,2.00
2022-08-09T02:19:44.350Z,2.50
2022-08-09T02:22:31.510Z,2.10
2022-08-09T02:25:06.662Z,2.20
2022-08-09T02:27:57.853Z,2.53
2022-08-09T02:30:26.460Z,2.50
2022-08-09T02:32:55.093Z,2.60
2022-08-09T02:36:01.604Z,2.13
2022-08-09T02:38:27.819Z,2.97
2022-08-09T02:41:03.728Z,2.13
2022-08-09T02:43:47.812Z,2.33
2022-08-09T02:46:24.824Z,2.00
2022-08-09T02:48:56.810Z,2.37
2022-08-09T02:51:26.643Z,2.20
2022-08-09T02:54:01.203Z,2.10
2022-08-09T02:56:31.965Z,2.10
2022-08-09T02:59:02.030Z,2.40
2022-08-09T03:01:43.226Z,2.30
2022-08-09T03:04:28.854Z,2.03
2022-08-09T03:06:59.734Z,2.00
2022-08-09T03:09:42.940Z,2.30
2022-08-09T03:12:13.450Z,1.97
2022-08-09T03:14:42.944Z,2.10
2022-08-09T03:17:20.358Z,2.13
2022-08-09T03:19:58.335Z,2.13
2022-08-09T03:22:41.310Z,2.10
2022-08-09T03:25:26.329Z,2.53
2022-08-09T03:28:01.006Z,2.30
2022-08-09T03:30:34.117Z,2.27
2022-08-09T03:33:17.796Z,2.00
2022-08-09T03:36:13.892Z,1.70
2022-08-09T03:38:41.809Z,2.13
2022-08-09T03:41:14.701Z,2.00
2022-08-09T03:44:03.005Z,2.30
2022-08-09T03:46:32.746Z,2.60
2022-08-09T03:49:08.168Z,2.50
2022-08-09T03:51:55.296Z,2.50
2022-08-09T03:54:29.158Z,2.00
2022-08-09T03:57:04.524Z,2.70
2022-08-09T03:59:54.676Z,2.00
2022-08-09T04:02:27.950Z,2.30
2022-08-09T04:05:00.637Z,2.03
2022-08-09T04:07:33.738Z,2.50
2022-08-09T04:10:29.049Z,2.17
2022-08-09T04:13:01.384Z,1.90
2022-08-09T04:16:17.403Z,2.30
2022-08-09T04:18:21.478Z,2.43
2022-08-09T04:20:51.701Z,2.47
2022-08-09T04:23:23.471Z,2.53
2022-08-09T04:25:53.785Z,2.10
2022-08-09T04:28:33.977Z,2.20
2022-08-09T04:31:10.225Z,2.00
2022-08-09T04:33:51.930Z,2.30
2022-08-09T04:36:25.438Z,2.50
2022-08-09T04:38:53.856Z,2.27
2022-08-09T04:41:23.780Z,2.13
2022-08-09T04:44:05.680Z,2.50
2022-08-09T04:46:37.656Z,2.40
2022-08-09T04:49:40.628Z,2.13
2022-08-09T04:52:18.663Z,2.40
2022-08-09T04:54:54.346Z,2.47
2022-08-09T04:57:24.515Z,1.90
2022-08-09T04:59:55.172Z,2.30
2022-08-09T05:02:27.123Z,2.03
2022-08-09T05:04:56.365Z,1.90
2022-08-09T05:07:29.386Z,2.10
2022-08-09T05:10:01.980Z,2.00
2022-08-09T05:12:33.222Z,1.97
2022-08-09T05:15:03.994Z,2.67
2022-08-09T05:18:38.428Z,2.00
2022-08-09T05:20:30.381Z,2.50
2022-08-09T05:23:54.061Z,1.80
2022-08-09T05:25:50.894Z,2.20
2022-08-09T05:28:20.113Z,2.23
2022-08-09T05:30:49.362Z,2.30
2022-08-09T05:33:26.539Z,2.43
2022-08-09T05:36:01.022Z,2.20
2022-08-09T05:38:30.828Z,2.13
2022-08-09T05:41:00.351Z,2.30
2022-08-09T05:43:29.153Z,2.17
2022-08-09T05:46:00.658Z,2.27
2022-08-09T05:48:32.952Z,2.13
2022-08-09T05:51:30.280Z,2.37
2022-08-09T05:53:56.693Z,2.60
2022-08-09T05:56:28.107Z,2.90
2022-08-09T05:58:58.885Z,2.57
2022-08-09T06:01:33.506Z,2.00
2022-08-09T06:04:05.902Z,2.37
2022-08-09T06:06:35.033Z,2.80
2022-08-09T06:09:05.525Z,2.47
2022-08-09T06:11:57.339Z,2.37
2022-08-09T06:14:26.392Z,2.67
2022-08-09T06:16:57.367Z,2.90
2022-08-09T06:19:27.423Z,2.20
2022-08-09T06:21:58.321Z,2.67
2022-08-09T06:24:28.738Z,2.80
2022-08-09T06:26:58.118Z,2.70
2022-08-09T06:29:26.815Z,2.33
2022-08-09T06:32:08.848Z,2.57
2022-08-09T06:34:48.042Z,2.63
2022-08-09T06:37:19.528Z,2.63
2022-08-09T06:39:59.813Z,1.83
2022-08-09T06:42:30.510Z,2.60
2022-08-09T06:45:04.635Z,2.60
2022-08-09T06:47:58.049Z,2.50
2022-08-09T06:50:31.134Z,2.20
2022-08-09T06:53:00.939Z,2.20
2022-08-09T06:55:33.179Z,2.10
2022-08-09T06:58:04.424Z,2.57
2022-08-09T07:00:51.174Z,2.40
2022-08-09T07:03:28.637Z,2.80
2022-08-09T07:06:04.502Z,2.30
2022-08-09T07:08:35.188Z,2.20
2022-08-09T07:11:07.234Z,2.57
2022-08-09T07:14:04.072Z,2.93
2022-08-09T07:16:41.749Z,2.60
2022-08-09T07:19:15.225Z,2.57
2022-08-09T07:21:55.448Z,2.50
2022-08-09T07:24:31.918Z,2.60
2022-08-09T07:27:26.710Z,2.40
2022-08-09T07:29:59.678Z,2.33
2022-08-09T07:32:32.617Z,2.10
2022-08-09T07:35:08.014Z,2.73
2022-08-09T07:37:42.972Z,2.00
2022-08-09T07:40:14.027Z,3.80
2022-08-09T07:42:54.558Z,2.50
2022-08-09T07:45:37.488Z,2.37
2022-08-09T07:48:07.379Z,2.60
2022-08-09T07:50:40.582Z,3.60
2022-08-09T07:53:09.176Z,2.17
2022-08-09T07:55:41.736Z,2.40
2022-08-09T07:58:27.236Z,2.67
2022-08-09T08:00:55.779Z,2.40
2022-08-09T08:03:36.913Z,2.80
2022-08-09T08:06:05.546Z,2.60
2022-08-09T08:09:01.898Z,2.77
2022-08-09T08:12:09.868Z,2.37
2022-08-09T08:14:11.672Z,2.07
2022-08-09T08:16:40.035Z,2.10
2022-08-09T08:19:31.264Z,2.43
2022-08-09T08:21:59.789Z,2.20
2022-08-09T08:24:34.300Z,2.17
2022-08-09T08:27:17.065Z,2.50
2022-08-09T08:29:50.126Z,2.80
2022-08-09T08:32:34.562Z,2.27
2022-08-09T08:35:09.814Z,1.93
2022-08-09T08:38:01.919Z,2.60
2022-08-09T08:40:35.094Z,2.73
2022-08-09T08:43:13.222Z,2.10
2022-08-09T08:46:03.994Z,2.70
2022-08-09T08:48:51.483Z,2.40
2022-08-09T08:51:22.479Z,2.47
2022-08-09T08:54:03.901Z,2.90
2022-08-09T08:56:35.836Z,2.03
2022-08-09T08:59:19.908Z,2.80
2022-08-09T09:01:52.895Z,2.30
2022-08-09T09:04:27.415Z,2.00
2022-08-09T09:06:59.051Z,2.47
2022-08-09T09:09:58.300Z,2.00
2022-08-09T09:12:19.457Z,2.50
2022-08-09T09:14:50.901Z,2.10
2022-08-09T09:17:21.692Z,2.10
2022-08-09T09:19:51.129Z,2.10
2022-08-09T09:22:23.826Z,2.57
2022-08-09T09:26:01.588Z,2.10
2022-08-09T09:28:06.448Z,2.20
2022-08-09T09:30:41.333Z,2.10
2022-08-09T09:33:16.116Z,2.70
2022-08-09T09:36:01.820Z,2.03
2022-08-09T09:38:41.972Z,3.27
2022-08-09T09:41:11.287Z,2.30
2022-08-09T09:43:41.570Z,2.00
2022-08-09T09:46:51.323Z,2.33
2022-08-09T09:49:49.743Z,2.20
2022-08-09T09:52:16.498Z,2.30
2022-08-09T09:55:16.320Z,2.20
2022-08-09T09:58:16.301Z,2.10
2022-08-09T10:00:52.733Z,2.60
2022-08-09T10:03:44.135Z,2.27
2022-08-09T10:06:15.015Z,2.60
2022-08-09T10:08:57.353Z,2.20
2022-08-09T10:12:00.875Z,2.20
2022-08-09T10:14:27.763Z,2.90
2022-08-09T10:17:11.358Z,2.40
2022-08-09T10:19:52.827Z,2.07
2022-08-09T10:22:34.315Z,2.60
2022-08-09T10:25:12.279Z,2.70
2022-08-09T10:27:56.195Z,2.53
2022-08-09T10:34:04.862Z,2.10
2022-08-09T10:36:02.947Z,2.80
2022-08-09T10:38:56.000Z,2.60
2022-08-09T10:41:25.391Z,2.40
2022-08-09T10:44:01.276Z,2.60
2022-08-09T10:48:12.042Z,2.63
2022-08-09T10:50:05.707Z,3.10
2022-08-09T10:53:10.300Z,2.37
2022-08-09T10:55:55.285Z,2.83
2022-08-09T10:58:33.526Z,2.33
2022-08-09T11:03:02.503Z,2.40
2022-08-09T11:04:28.296Z,2.70
2022-08-09T11:07:57.008Z,2.57
2022-08-09T11:10:18.529Z,2.20
2022-08-09T11:13:50.995Z,2.37
2022-08-09T11:16:35.400Z,2.33
2022-08-09T11:19:09.309Z,2.37
2022-08-09T11:22:05.403Z,2.57
2022-08-09T11:25:08.525Z,2.20
2022-08-09T11:28:04.400Z,1.77
2022-08-09T11:30:38.180Z,2.40
2022-08-09T11:33:13.143Z,2.60
2022-08-09T11:35:49.150Z,2.20
2022-08-09T11:38:19.712Z,1.87
2022-08-09T11:40:54.861Z,3.47
2022-08-09T11:43:43.510Z,1.60
2022-08-09T11:46:13.281Z,2.30
2022-08-09T11:48:58.260Z,2.10
2022-08-09T11:52:48.894Z,1.73
2022-08-09T11:54:27.702Z,1.90
2022-08-09T11:57:47.777Z,1.87
2022-08-09T12:00:22.888Z,1.90
2022-08-09T12:02:58.431Z,1.80
2022-08-09T12:05:39.714Z,2.00
2022-08-09T12:08:21.526Z,2.43
2022-08-09T12:10:52.986Z,2.07
2022-08-09T12:14:08.409Z,1.67
2022-08-09T12:16:37.138Z,2.27
2022-08-09T12:19:12.041Z,2.00
2022-08-09T12:21:50.611Z,1.70
2022-08-09T12:24:25.298Z,1.93
2022-08-09T12:28:59.900Z,1.80
2022-08-09T12:30:01.478Z,2.47
2022-08-09T12:32:48.398Z,1.90
2022-08-09T12:35:19.294Z,2.80
2022-08-09T12:37:52.523Z,2.93
2022-08-09T12:40:27.367Z,2.40
2022-08-09T12:42:56.449Z,2.20
2022-08-09T12:45:33.270Z,2.27
2022-08-09T12:48:04.178Z,3.33
2022-08-09T12:50:35.931Z,2.10
2022-08-09T12:53:17.694Z,1.67
2022-08-09T12:56:14.892Z,1.80
2022-08-09T12:58:42.563Z,1.40
2022-08-09T13:01:23.649Z,1.77
2022-08-09T13:04:02.371Z,1.23
2022-08-09T13:06:34.593Z,1.57
2022-08-09T13:09:09.906Z,1.90
2022-08-09T13:11:42.333Z,1.60
2022-08-09T13:14:42.182Z,1.37
2022-08-09T13:17:08.350Z,1.80
2022-08-09T13:20:11.304Z,1.53
2022-08-09T13:22:45.539Z,1.70
2022-08-09T13:25:18.372Z,1.57
2022-08-09T13:27:48.645Z,1.30
2022-08-09T13:30:50.177Z,1.50
2022-08-09T13:33:11.626Z,1.80
2022-08-09T13:36:39.506Z,1.50
2022-08-09T13:38:54.200Z,1.37
2022-08-09T13:41:55.684Z,1.70
2022-08-09T13:44:16.487Z,1.40
2022-08-09T13:47:27.371Z,1.47
2022-08-09T13:49:38.177Z,1.47
2022-08-09T13:52:22.632Z,1.60
2022-08-09T13:54:59.994Z,1.70
2022-08-09T13:57:36.482Z,1.23
2022-08-09T14:00:12.118Z,1.40
2022-08-09T14:03:02.959Z,1.77
2022-08-09T14:06:01.247Z,1.33
2022-08-09T14:08:19.183Z,1.43
2022-08-09T14:10:52.943Z,1.03
2022-08-09T14:13:28.008Z,1.17
2022-08-09T14:16:15.555Z,1.20
2022-08-09T14:18:49.589Z,1.10
2022-08-09T14:21:21.078Z,1.70
2022-08-09T14:23:55.439Z,1.43
2022-08-09T14:26:30.242Z,1.80
2022-08-09T14:29:03.129Z,1.27
2022-08-09T14:31:36.164Z,1.40
2022-08-09T14:34:32.293Z,1.33
2022-08-09T14:37:06.638Z,1.30
2022-08-09T14:39:45.277Z,1.13
2022-08-09T14:42:28.919Z,1.50
2022-08-09T14:45:00.704Z,1.83
2022-08-09T14:47:45.062Z,1.30
2022-08-09T14:50:17.680Z,1.90
2022-08-09T14:52:49.973Z,1.40
2022-08-09T14:55:19.912Z,1.33
2022-08-09T14:57:50.132Z,1.80
2022-08-09T15:00:18.899Z,1.40
2022-08-09T15:02:51.764Z,1.50
2022-08-09T15:05:20.626Z,1.47
2022-08-09T15:07:55.935Z,1.37
2022-08-09T15:10:25.430Z,1.40
2022-08-09T15:12:55.432Z,1.50
2022-08-09T15:15:28.592Z,1.57
2022-08-09T15:17:58.538Z,1.60
2022-08-09T15:21:58.959Z,1.23
2022-08-09T15:24:02.278Z,1.30
2022-08-09T15:26:05.191Z,1.57
2022-08-09T15:28:41.972Z,1.60
2022-08-09T15:31:17.917Z,1.30
2022-08-09T15:34:18.043Z,1.30
2022-08-09T15:36:35.396Z,1.43
2022-08-09T15:39:03.645Z,1.47
2022-08-09T15:41:32.720Z,1.63
2022-08-09T15:44:02.823Z,1.10
2022-08-09T15:46:35.047Z,1.40
2022-08-09T15:49:23.520Z,1.60
2022-08-09T15:52:03.812Z,1.50
2022-08-09T15:54:46.241Z,1.17
2022-08-09T15:57:24.150Z,1.17
2022-08-09T16:00:14.292Z,1.20
2022-08-09T16:02:53.444Z,1.70
2022-08-09T16:05:24.125Z,1.30
2022-08-09T16:07:52.528Z,1.67
2022-08-09T16:10:55.555Z,1.00
2022-08-09T16:13:21.349Z,1.60
2022-08-09T16:16:11.799Z,1.37
2022-08-09T16:18:46.017Z,1.47
2022-08-09T16:21:17.700Z,1.60
2022-08-09T16:23:58.469Z,1.37
2022-08-09T16:26:35.004Z,1.20
2022-08-09T16:29:11.434Z,1.50
2022-08-09T16:32:19.375Z,1.60
2022-08-09T16:34:54.512Z,1.53
2022-08-09T16:37:53.366Z,1.50
2022-08-09T16:40:10.883Z,1.17
2022-08-09T16:42:45.471Z,1.50
2022-08-09T16:45:16.717Z,1.40
2022-08-09T16:48:50.209Z,1.50
2022-08-09T16:50:38.747Z,1.30
2022-08-09T16:53:08.876Z,1.47
2022-08-09T16:55:58.849Z,1.30
2022-08-09T16:58:26.106Z,1.50
2022-08-09T17:00:54.961Z,1.60
2022-08-09T17:03:25.220Z,1.63
2022-08-09T17:06:29.270Z,1.50
2022-08-09T17:09:16.149Z,1.43
2022-08-09T17:11:55.470Z,1.60
2022-08-09T17:14:27.326Z,1.30
2022-08-09T17:16:59.645Z,1.53
2022-08-09T17:20:05.958Z,1.50
2022-08-09T17:22:25.064Z,1.60
2022-08-09T17:25:03.828Z,1.77
2022-08-09T17:27:33.720Z,1.57
2022-08-09T17:30:05.062Z,1.70
2022-08-09T17:32:37.790Z,1.80
2022-08-09T17:35:11.285Z,1.63
2022-08-09T17:38:14.574Z,1.80
2022-08-09T17:40:32.159Z,1.43
2022-08-09T17:43:03.244Z,1.67
2022-08-09T17:46:03.202Z,1.60
2022-08-09T17:48:39.717Z,1.53
2022-08-09T17:51:19.637Z,2.13
2022-08-09T17:53:54.749Z,1.77
2022-08-09T17:56:27.855Z,2.00
2022-08-09T17:59:02.936Z,2.17
2022-08-09T18:02:03.499Z,1.60
2022-08-09T18:04:20.779Z,1.80
2022-08-09T18:06:55.094Z,1.90
2022-08-09T18:09:41.056Z,1.97
2022-08-09T18:12:14.941Z,2.00
2022-08-09T18:14:53.474Z,1.73
2022-08-09T18:17:27.501Z,2.00
2022-08-09T18:20:55.835Z,1.83
2022-08-09T18:23:05.663Z,2.00
2022-08-09T18:25:50.890Z,2.20
2022-08-09T18:30:39.884Z,1.97
2022-08-09T18:31:10.904Z,1.93
2022-08-09T18:33:40.329Z,1.43
2022-08-09T18:36:14.220Z,1.53
2022-08-09T18:38:45.355Z,2.27
2022-08-09T18:41:16.462Z,2.13
2022-08-09T18:43:52.981Z,1.77
2022-08-09T18:46:46.011Z,1.80
2022-08-09T18:49:10.348Z,1.63
2022-08-09T18:51:55.280Z,1.73
2022-08-09T18:54:29.713Z,1.73
2022-08-09T18:57:05.785Z,1.53
2022-08-09T18:59:37.304Z,1.77
2022-08-09T19:02:12.047Z,1.60
2022-08-09T19:04:43.299Z,1.80
2022-08-09T19:07:16.462Z,2.03
2022-08-09T19:10:16.618Z,1.70
2022-08-09T19:12:36.659Z,2.17
2022-08-09T19:15:08.272Z,1.80
2022-08-09T19:17:54.550Z,1.90
2022-08-09T19:20:24.959Z,1.60
2022-08-09T19:22:54.579Z,2.20
2022-08-09T19:25:42.782Z,2.10
2022-08-09T19:28:13.756Z,1.70
2022-08-09T19:30:44.711Z,1.43
2022-08-09T19:33:19.381Z,1.83
2022-08-09T19:35:58.168Z,1.80
2022-08-09T19:38:27.545Z,1.73
2022-08-09T19:40:59.906Z,1.97
2022-08-09T19:43:58.105Z,1.63
2022-08-09T19:46:34.069Z,1.90
2022-08-09T19:50:07.709Z,1.90
2022-08-09T19:51:55.334Z,1.63
2022-08-09T19:54:25.398Z,1.80
2022-08-09T19:56:55.072Z,1.70
2022-08-09T19:59:59.503Z,1.50
2022-08-09T20:02:17.376Z,1.90
2022-08-09T20:05:02.628Z,1.67
2022-08-09T20:07:58.557Z,1.57
2022-08-09T20:10:36.475Z,1.53
2022-08-09T20:13:08.334Z,1.80
2022-08-09T20:16:37.681Z,1.70
2022-08-09T20:18:27.897Z,1.60
2022-08-09T20:20:57.094Z,1.67
2022-08-09T20:23:39.070Z,1.63
2022-08-09T20:26:09.858Z,2.03
2022-08-09T20:28:48.524Z,1.73
2022-08-09T20:31:18.359Z,1.70
2022-08-09T20:33:58.564Z,1.97
2022-08-09T20:36:30.371Z,2.17
2022-08-09T20:39:27.996Z,2.17
2022-08-09T20:41:49.037Z,1.60
2022-08-09T20:44:26.818Z,2.10
2022-08-09T20:46:55.539Z,1.80
2022-08-09T20:49:27.538Z,1.87
2022-08-09T20:51:57.078Z,1.70
2022-08-09T20:54:31.519Z,1.77
2022-08-09T20:56:59.736Z,1.87
2022-08-09T21:00:19.374Z,1.90
2022-08-09T21:02:18.648Z,1.87
2022-08-09T21:05:54.126Z,1.70
2022-08-09T21:07:40.233Z,1.50
2022-08-09T21:10:11.490Z,1.80
2022-08-09T21:12:39.839Z,1.53
2022-08-09T21:15:12.459Z,2.10
2022-08-09T21:18:22.980Z,1.60
2022-08-09T21:20:30.330Z,1.47
2022-08-09T21:22:59.272Z,2.40
2022-08-09T21:25:55.329Z,1.73
2022-08-09T21:28:33.729Z,1.80
2022-08-09T21:31:19.521Z,1.67
2022-08-09T21:33:51.083Z,1.53
2022-08-09T21:36:21.157Z,1.80
2022-08-09T21:38:57.259Z,1.73
2022-08-09T21:42:04.352Z,1.33
2022-08-09T21:44:15.458Z,1.57
2022-08-09T21:47:05.171Z,1.73
2022-08-09T21:49:39.827Z,1.50
2022-08-09T21:52:16.578Z,1.70
2022-08-09T21:54:50.884Z,1.50
2022-08-09T21:57:38.126Z,1.90
2022-08-09T22:00:25.420Z,1.67
2022-08-09T22:02:58.726Z,1.97
2022-08-09T22:05:36.185Z,1.60
2022-08-09T22:08:14.588Z,1.77
2022-08-09T22:11:04.921Z,1.80
2022-08-09T22:13:34.540Z,2.10
2022-08-09T22:16:07.850Z,1.60
2022-08-09T22:18:44.189Z,1.50
2022-08-09T22:21:24.827Z,1.53
2022-08-09T22:24:01.632Z,1.60
2022-08-09T22:26:35.402Z,1.83
2022-08-09T22:29:09.247Z,1.57
2022-08-09T22:31:50.357Z,1.60
2022-08-09T22:34:27.636Z,1.90
2022-08-09T22:36:56.665Z,1.83
2022-08-09T22:39:55.679Z,1.87
2022-08-09T22:42:20.885Z,1.63
2022-08-09T22:48:04.549Z,1.60
2022-08-09T22:48:18.264Z,1.60
2022-08-09T22:50:29.707Z,1.43
2022-08-09T22:52:58.728Z,1.80
2022-08-09T22:55:39.663Z,2.17
2022-08-09T22:58:20.372Z,1.47
2022-08-09T23:01:03.664Z,1.47
2022-08-09T23:04:02.912Z,1.80
2022-08-09T23:06:35.689Z,1.73
2022-08-09T23:09:07.684Z,1.60
2022-08-09T23:11:35.997Z,1.60
2022-08-09T23:14:09.859Z,1.70
2022-08-09T23:16:45.031Z,1.50
2022-08-09T23:19:13.273Z,1.40
2022-08-09T23:21:42.852Z,1.40
2022-08-09T23:24:13.110Z,1.33
2022-08-09T23:26:41.597Z,1.57
2022-08-09T23:29:13.656Z,1.73
2022-08-09T23:31:42.201Z,1.57
2022-08-09T23:34:10.515Z,1.57
2022-08-09T23:36:39.153Z,1.83
2022-08-09T23:39:08.802Z,1.50
2022-08-09T23:41:37.050Z,1.80
2022-08-09T23:44:06.511Z,1.73
2022-08-09T23:46:34.869Z,1.73
2022-08-09T23:49:03.341Z,1.60
2022-08-09T23:51:31.627Z,1.50
2022-08-09T23:54:02.659Z,1.60
2022-08-09T23:56:52.294Z,2.20
2022-08-09T23:59:21.820Z,1.80
